Time;durP1;ratioP1;P1;durP2;ratioP2;P2;SDS_P1;SDS_P2;PMS_P1;PMS_P2;Temp;Humidity;BMP_temperature;BMP_pressure;BME280_temperature;BME280_humidity;BME280_pressure;Samples;Min_cycle;Max_cycle;Signal;HPM_P1;HPM_P2
2021/04/17 00:00:43;;;;;;;7.60;4.18;;;;;;;4.89;100.00;102905.44;6156690;23;20013;-83
2021/04/17 00:03:08;;;;;;;8.75;4.15;;;;;;;4.76;100.00;102898.28;6129733;23;20025;-81
2021/04/17 00:05:33;;;;;;;10.15;4.07;;;;;;;4.75;100.00;102893.03;6129668;23;20065;-81
2021/04/17 00:07:59;;;;;;;10.52;4.05;;;;;;;4.76;100.00;102886.94;6128089;23;20009;-81
2021/04/17 00:10:24;;;;;;;8.40;4.13;;;;;;;4.75;100.00;102891.28;6130003;23;20827;-81
2021/04/17 00:12:49;;;;;;;11.25;4.00;;;;;;;4.61;100.00;102878.00;6156660;23;20036;-83
2021/04/17 00:15:15;;;;;;;10.13;3.63;;;;;;;4.63;100.00;102886.78;6130627;23;20002;-84
2021/04/17 00:17:40;;;;;;;11.05;3.85;;;;;;;4.73;100.00;102890.41;6157268;23;20005;-84
2021/04/17 00:20:06;;;;;;;7.95;4.07;;;;;;;4.65;100.00;102890.28;6130254;23;20013;-84
2021/04/17 00:22:32;;;;;;;13.35;4.55;;;;;;;4.68;100.00;102885.09;6167278;23;19987;-82
2021/04/17 00:24:57;;;;;;;9.75;3.92;;;;;;;4.60;100.00;102886.72;6133913;23;20045;-82
2021/04/17 00:27:22;;;;;;;7.72;3.50;;;;;;;4.61;100.00;102887.59;6158258;23;20529;-81
2021/04/17 00:29:47;;;;;;;11.95;4.28;;;;;;;4.58;100.00;102883.22;6155506;23;20018;-81
2021/04/17 00:32:13;;;;;;;7.10;3.25;;;;;;;4.55;100.00;102882.31;6153270;23;20563;-82
2021/04/17 00:34:38;;;;;;;11.00;3.45;;;;;;;4.58;100.00;102884.97;6127968;23;20005;-83
2021/04/17 00:37:04;;;;;;;11.85;3.95;;;;;;;4.47;100.00;102874.38;6128537;23;20033;-83
2021/04/17 00:39:29;;;;;;;7.53;4.30;;;;;;;4.51;100.00;102880.50;6135181;23;20012;-82
2021/04/17 00:41:54;;;;;;;15.13;3.80;;;;;;;4.45;100.00;102864.72;6159922;23;20049;-81
2021/04/17 00:44:20;;;;;;;10.13;3.33;;;;;;;4.43;100.00;102874.28;6131726;23;20374;-82
2021/04/17 00:46:45;;;;;;;7.43;3.13;;;;;;;4.40;100.00;102878.63;6158254;23;20009;-82
2021/04/17 00:49:12;;;;;;;7.75;3.35;;;;;;;4.47;100.00;102873.44;6130204;23;20013;-82
2021/04/17 00:51:38;;;;;;;9.25;3.72;;;;;;;4.49;100.00;102871.75;6155830;23;20037;-83
2021/04/17 00:54:05;;;;;;;6.82;4.03;;;;;;;4.40;100.00;102875.13;6131702;23;20013;-83
2021/04/17 00:56:31;;;;;;;11.32;4.57;;;;;;;4.43;100.00;102871.69;6159254;23;20483;-82
2021/04/17 00:58:56;;;;;;;8.77;3.40;;;;;;;4.33;100.00;102876.78;6157115;23;20005;-82
2021/04/17 01:01:22;;;;;;;11.23;3.35;;;;;;;4.29;100.00;102866.25;6129461;23;20088;-82
2021/04/17 01:03:57;;;;;;;13.68;3.70;;;;;;;4.32;100.00;102864.56;6160070;23;20005;-82
2021/04/17 01:06:31;;;;;;;10.80;3.38;;;;;;;4.35;100.00;102875.06;6158994;23;20002;-82
2021/04/17 01:09:08;;;;;;;8.52;4.20;;;;;;;4.32;100.00;102875.03;6133204;23;20091;-82
2021/04/17 01:11:41;;;;;;;8.85;3.30;;;;;;;4.27;100.00;102881.06;6130178;23;20012;-82
2021/04/17 01:14:08;;;;;;;8.23;3.00;;;;;;;4.17;100.00;102869.59;6130038;23;20024;-82
2021/04/17 01:16:34;;;;;;;13.73;4.28;;;;;;;4.26;100.00;102871.44;6155903;23;20339;-81
2021/04/17 01:19:03;;;;;;;9.27;4.00;;;;;;;4.26;100.00;102866.19;6129136;23;20094;-81
2021/04/17 01:21:29;;;;;;;8.70;3.22;;;;;;;4.26;100.00;102872.31;6156371;23;20001;-81
2021/04/17 01:24:02;;;;;;;13.30;3.00;;;;;;;4.20;100.00;102877.47;6156403;23;20008;-81
2021/04/17 01:26:28;;;;;;;7.13;2.83;;;;;;;4.14;100.00;102865.16;6129880;23;20009;-82
2021/04/17 01:28:58;;;;;;;5.10;3.65;;;;;;;4.21;100.00;102875.72;6113880;23;20105;-82
2021/04/17 01:31:34;;;;;;;5.88;2.95;;;;;;;4.12;100.00;102866.03;6127939;23;20089;-82
2021/04/17 01:34:02;;;;;;;18.80;4.85;;;;;;;4.14;100.00;102874.75;6126845;23;20058;-82
2021/04/17 01:36:30;;;;;;;14.65;4.00;;;;;;;4.10;100.00;102875.56;6126783;23;20444;-81
2021/04/17 01:38:59;;;;;;;10.40;3.40;;;;;;;4.10;100.00;102883.41;6131748;23;20002;-81
2021/04/17 01:41:31;;;;;;;6.10;3.58;;;;;;;4.10;100.00;102876.44;6135589;23;19998;-84
2021/04/17 01:44:01;;;;;;;9.52;3.20;;;;;;;4.03;100.00;102864.13;6112481;23;20104;-81
2021/04/17 01:46:29;;;;;;;10.75;3.47;;;;;;;4.07;100.00;102872.94;6139886;23;20013;-82
2021/04/17 01:49:00;;;;;;;5.40;3.17;;;;;;;4.00;100.00;102871.06;6111249;23;20014;-83
2021/04/17 01:51:27;;;;;;;9.02;3.47;;;;;;;4.03;100.00;102876.34;6110778;23;20005;-83
2021/04/17 01:53:54;;;;;;;9.38;4.60;;;;;;;4.01;100.00;102862.34;6107711;23;20006;-83
2021/04/17 01:56:21;;;;;;;7.30;3.38;;;;;;;4.02;100.00;102864.13;6134284;23;20002;-83
2021/04/17 01:58:48;;;;;;;9.10;3.75;;;;;;;4.00;100.00;102863.19;6132338;23;20810;-83
2021/04/17 02:01:18;;;;;;;7.28;2.90;;;;;;;3.93;100.00;102866.59;6131732;23;20025;-83
2021/04/17 02:03:43;;;;;;;5.75;3.25;;;;;;;3.95;100.00;102867.50;6106113;23;20285;-82
2021/04/17 02:06:08;;;;;;;7.10;2.75;;;;;;;3.94;100.00;102865.72;6102508;23;20040;-83
2021/04/17 02:08:37;;;;;;;9.93;3.53;;;;;;;3.86;100.00;102866.47;6103854;23;20420;-84
2021/04/17 02:11:03;;;;;;;7.13;3.38;;;;;;;3.89;100.00;102858.69;6107827;23;19998;-83
2021/04/17 02:13:29;;;;;;;11.18;3.60;;;;;;;3.82;100.00;102856.84;6134598;23;20056;-81
2021/04/17 02:16:00;;;;;;;6.63;2.72;;;;;;;3.81;100.00;102849.84;6136272;23;20030;-84
2021/04/17 02:18:35;;;;;;;11.80;4.13;;;;;;;3.87;100.00;102852.56;6109479;23;20313;-84
2021/04/17 02:21:07;;;;;;;7.85;3.45;;;;;;;3.84;100.00;102855.13;6100910;23;20009;-83
2021/04/17 02:23:33;;;;;;;7.80;3.35;;;;;;;3.82;100.00;102855.97;6126547;23;20001;-82
2021/04/17 02:25:59;;;;;;;9.25;3.20;;;;;;;3.79;100.00;102867.25;6126252;23;20072;-82
2021/04/17 02:28:27;;;;;;;9.38;3.13;;;;;;;3.81;100.00;102854.19;6101062;23;20018;-82
2021/04/17 02:30:53;;;;;;;5.82;3.47;;;;;;;3.77;100.00;102848.06;6128635;23;20001;-83
2021/04/17 02:33:21;;;;;;;7.72;3.38;;;;;;;3.77;100.00;102849.78;6131736;23;20082;-82
2021/04/17 02:35:46;;;;;;;8.23;3.55;;;;;;;3.73;100.00;102850.59;6105667;23;20092;-82
2021/04/17 02:38:12;;;;;;;8.27;3.63;;;;;;;3.75;100.00;102854.97;6104592;23;20013;-82
2021/04/17 02:40:37;;;;;;;7.75;3.20;;;;;;;3.68;100.00;102853.13;6127792;23;20010;-82
2021/04/17 02:43:03;;;;;;;11.18;4.18;;;;;;;3.66;100.00;102841.75;6128486;23;20006;-82
2021/04/17 02:45:28;;;;;;;9.48;3.80;;;;;;;3.58;100.00;102852.09;6102395;23;20029;-82
2021/04/17 02:47:53;;;;;;;13.52;3.90;;;;;;;3.64;100.00;102859.16;6102216;23;20009;-82
2021/04/17 02:50:20;;;;;;;8.40;3.85;;;;;;;3.65;100.00;102855.69;6101337;23;20001;-82
2021/04/17 02:52:45;;;;;;;8.38;4.30;;;;;;;3.61;100.00;102852.16;6126679;23;20332;-84
2021/04/17 02:55:11;;;;;;;15.10;4.28;;;;;;;3.54;100.00;102865.97;6100433;23;19997;-83
2021/04/17 02:57:37;;;;;;;9.23;4.05;;;;;;;3.57;100.00;102849.47;6103833;23;20108;-84
2021/04/17 03:00:05;;;;;;;11.15;4.13;;;;;;;3.60;100.00;102853.00;6102658;23;20006;-84
2021/04/17 03:02:31;;;;;;;8.15;3.90;;;;;;;3.54;100.00;102849.41;6101605;23;20025;-84
2021/04/17 03:04:56;;;;;;;6.15;4.15;;;;;;;3.56;100.00;102839.84;6101913;23;20874;-85
2021/04/17 03:07:21;;;;;;;10.10;4.35;;;;;;;3.61;100.00;102848.63;6102229;23;20001;-85
2021/04/17 03:09:46;;;;;;;10.18;3.97;;;;;;;3.59;100.00;102838.16;6103944;23;20335;-84
2021/04/17 03:12:12;;;;;;;8.20;3.88;;;;;;;3.52;100.00;102845.91;6105367;23;20064;-84
2021/04/17 03:14:40;;;;;;;20.98;4.80;;;;;;;3.48;100.00;102846.69;6104062;23;20077;-85
2021/04/17 03:17:05;;;;;;;9.27;4.57;;;;;;;3.49;100.00;102845.84;6103271;23;20010;-85
2021/04/17 03:19:30;;;;;;;17.83;4.97;;;;;;;3.52;100.00;102840.66;6101337;23;20680;-84
2021/04/17 03:21:55;;;;;;;12.77;4.75;;;;;;;3.44;100.00;102834.41;6125058;23;20032;-82
2021/04/17 03:24:21;;;;;;;12.68;4.97;;;;;;;3.47;100.00;102844.94;6099522;23;20012;-82
2021/04/17 03:26:46;;;;;;;12.57;5.85;;;;;;;3.44;100.00;102842.25;6099593;23;20044;-82
2021/04/17 03:29:11;;;;;;;11.02;4.30;;;;;;;3.41;100.00;102843.06;6144255;23;20018;-83
2021/04/17 03:31:36;;;;;;;7.85;4.57;;;;;;;3.43;100.00;102840.50;6156804;23;20013;-83
2021/04/17 03:34:02;;;;;;;13.50;5.00;;;;;;;3.36;100.00;102843.03;6129772;23;20013;-81
2021/04/17 03:36:27;;;;;;;13.77;5.35;;;;;;;3.34;100.00;102842.09;6129950;23;20005;-81
2021/04/17 03:38:54;;;;;;;17.85;5.32;;;;;;;3.37;100.00;102846.53;6129418;23;20432;-81
2021/04/17 03:41:19;;;;;;;15.60;5.22;;;;;;;3.40;100.00;102840.44;6158264;23;20002;-81
2021/04/17 03:43:44;;;;;;;11.15;4.90;;;;;;;3.41;100.00;102843.06;6154048;23;20056;-81
2021/04/17 03:46:10;;;;;;;11.23;4.55;;;;;;;3.36;100.00;102850.88;6154251;23;20054;-80
2021/04/17 03:48:35;;;;;;;11.70;4.53;;;;;;;3.32;100.00;102841.22;6129693;23;20412;-81
2021/04/17 03:51:00;;;;;;;15.98;5.43;;;;;;;3.36;100.00;102844.72;6128615;23;20005;-81
2021/04/17 03:53:26;;;;;;;17.08;5.55;;;;;;;3.31;100.00;102839.44;6154452;23;20009;-80
2021/04/17 03:55:51;;;;;;;10.75;4.95;;;;;;;3.30;100.00;102842.03;6156539;23;20088;-82
2021/04/17 03:58:16;;;;;;;11.90;4.97;;;;;;;3.26;100.00;102841.09;6156861;23;20088;-83
2021/04/17 04:00:41;;;;;;;17.05;6.13;;;;;;;3.30;100.00;102849.84;6129904;23;20056;-83
2021/04/17 04:03:07;;;;;;;17.83;5.07;;;;;;;3.35;100.00;102851.69;6156437;23;20326;-82
2021/04/17 04:05:32;;;;;;;9.65;4.72;;;;;;;3.31;100.00;102847.28;6132119;23;20041;-82
2021/04/17 04:07:57;;;;;;;9.52;5.22;;;;;;;3.33;100.00;102850.81;6131162;23;20092;-84
2021/04/17 04:10:23;;;;;;;12.85;5.45;;;;;;;3.23;100.00;102854.09;6140922;23;20056;-84
2021/04/17 04:12:48;;;;;;;10.32;6.18;;;;;;;3.23;100.00;102848.88;6140905;23;20025;-83
2021/04/17 04:15:14;;;;;;;10.75;5.93;;;;;;;3.20;100.00;102855.78;6141237;23;20002;-84
2021/04/17 04:17:40;;;;;;;9.48;6.40;;;;;;;3.22;100.00;102849.75;6165597;23;20041;-83
2021/04/17 04:20:06;;;;;;;14.38;5.68;;;;;;;3.17;100.00;102854.00;6161637;23;20025;-83
2021/04/17 04:22:35;;;;;;;18.40;6.22;;;;;;;3.21;100.00;102854.91;6134622;23;20048;-83
2021/04/17 04:25:02;;;;;;;13.75;6.45;;;;;;;3.17;100.00;102853.13;6162150;23;20001;-82
2021/04/17 04:27:27;;;;;;;14.73;6.38;;;;;;;3.14;100.00;102846.09;6162394;23;20005;-83
2021/04/17 04:29:52;;;;;;;13.02;6.97;;;;;;;3.02;100.00;102846.75;6163388;23;20013;-81
2021/04/17 04:32:18;;;;;;;13.80;6.40;;;;;;;3.05;100.00;102852.03;6136569;23;20073;-82
2021/04/17 04:34:43;;;;;;;13.45;7.20;;;;;;;3.03;100.00;102843.28;6163831;23;20013;-81
2021/04/17 04:37:09;;;;;;;19.30;8.52;;;;;;;2.97;100.00;102847.53;6160181;23;20011;-81
2021/04/17 04:39:34;;;;;;;18.55;8.05;;;;;;;2.97;100.00;102845.78;6133899;23;20013;-81
2021/04/17 04:41:59;;;;;;;24.52;8.57;;;;;;;2.97;100.00;102845.78;6159593;23;20002;-82
2021/04/17 04:44:25;;;;;;;17.17;8.35;;;;;;;2.96;100.00;102845.75;6159045;23;20029;-82
2021/04/17 04:46:51;;;;;;;17.13;8.70;;;;;;;3.05;100.00;102856.38;6159108;23;20041;-82
2021/04/17 04:49:16;;;;;;;18.98;8.98;;;;;;;3.05;100.00;102857.25;6160362;23;20006;-82
2021/04/17 04:51:41;;;;;;;17.45;8.63;;;;;;;3.06;100.00;102850.28;6135811;23;20333;-80
2021/04/17 04:54:07;;;;;;;16.92;9.20;;;;;;;3.04;100.00;102847.66;6159122;23;20012;-82
2021/04/17 04:56:32;;;;;;;17.08;8.55;;;;;;;3.10;100.00;102853.00;6156972;23;20033;-82
2021/04/17 04:58:57;;;;;;;16.77;8.48;;;;;;;3.03;100.00;102847.63;6158401;23;20454;-82
2021/04/17 05:01:23;;;;;;;20.45;9.07;;;;;;;3.13;100.00;102854.78;6158269;23;20006;-82
2021/04/17 05:03:50;;;;;;;22.77;10.23;;;;;;;3.08;100.00;102849.47;6156481;23;20075;-81
2021/04/17 05:06:15;;;;;;;20.17;9.55;;;;;;;3.16;100.00;102854.84;6158782;23;20010;-82
2021/04/17 05:08:41;;;;;;;14.38;8.13;;;;;;;3.24;100.00;102854.97;6158868;23;20012;-81
2021/04/17 05:11:06;;;;;;;16.42;8.52;;;;;;;3.20;100.00;102861.00;6129383;23;20012;-83
2021/04/17 05:13:31;;;;;;;16.88;8.55;;;;;;;3.18;100.00;102857.50;6154842;23;20006;-83
2021/04/17 05:15:57;;;;;;;15.80;8.57;;;;;;;3.23;100.00;102861.06;6128136;23;20013;-83
2021/04/17 05:18:22;;;;;;;18.83;9.35;;;;;;;3.18;100.00;102866.22;6128544;23;20005;-83
2021/04/17 05:20:47;;;;;;;15.68;8.05;;;;;;;3.22;100.00;102861.94;6155608;23;20005;-82
2021/04/17 05:23:12;;;;;;;16.27;7.95;;;;;;;3.27;100.00;102858.53;6129682;23;20444;-82
2021/04/17 05:25:38;;;;;;;20.38;8.45;;;;;;;3.34;100.00;102859.53;6154514;23;20089;-82
2021/04/17 05:28:03;;;;;;;14.95;8.93;;;;;;;3.32;100.00;102859.50;6154747;23;20005;-84
2021/04/17 05:30:29;;;;;;;16.88;8.65;;;;;;;3.36;100.00;102853.47;6136929;23;20005;-81
2021/04/17 05:32:54;;;;;;;12.32;7.82;;;;;;;3.36;100.00;102856.09;6137701;23;20052;-82
2021/04/17 05:35:20;;;;;;;16.30;9.10;;;;;;;3.40;100.00;102850.91;6159676;23;20002;-83
2021/04/17 05:37:45;;;;;;;23.92;8.77;;;;;;;3.39;100.00;102855.25;6162902;23;20137;-83
2021/04/17 05:40:10;;;;;;;19.67;8.38;;;;;;;3.48;100.00;102858.03;6137268;23;20030;-83
2021/04/17 05:42:36;;;;;;;15.32;8.57;;;;;;;3.57;100.00;102862.53;6136585;23;20092;-83
2021/04/17 05:45:01;;;;;;;18.15;8.07;;;;;;;3.58;100.00;102861.69;6163758;23;20006;-83
2021/04/17 05:47:27;;;;;;;17.50;7.85;;;;;;;3.66;100.00;102859.19;6140227;23;20001;-83
2021/04/17 05:49:52;;;;;;;14.60;7.85;;;;;;;3.76;100.00;102846.28;6133271;23;20032;-83
2021/04/17 05:52:17;;;;;;;16.92;7.57;;;;;;;3.87;100.00;102856.94;6162366;23;20084;-83
2021/04/17 05:54:43;;;;;;;16.70;7.72;;;;;;;3.83;100.00;102855.13;6157278;23;20001;-82
2021/04/17 05:57:08;;;;;;;13.40;6.68;;;;;;;3.85;100.00;102856.88;6131253;23;20009;-82
2021/04/17 05:59:34;;;;;;;15.35;7.28;;;;;;;3.93;100.00;102853.53;6131342;23;20039;-83
2021/04/17 06:01:59;;;;;;;15.85;7.18;;;;;;;4.05;100.00;102848.44;6157162;23;20001;-83
2021/04/17 06:04:27;;;;;;;14.93;6.63;;;;;;;4.13;100.00;102857.31;6130081;23;20005;-83
2021/04/17 06:06:52;;;;;;;17.63;6.22;;;;;;;4.25;100.00;102857.47;6130909;23;20001;-83
2021/04/17 06:09:19;;;;;;;12.80;5.50;;;;;;;4.21;100.00;102847.81;6129604;23;20056;-83
2021/04/17 06:11:45;;;;;;;14.85;5.22;;;;;;;4.30;100.00;102853.16;6155464;23;20028;-82
2021/04/17 06:14:10;;;;;;;17.42;5.65;;;;;;;4.37;100.00;102847.19;6156331;23;20005;-80
2021/04/17 06:16:35;;;;;;;12.98;5.70;;;;;;;4.41;100.00;102859.41;6157768;23;20017;-82
2021/04/17 06:19:01;;;;;;;13.05;5.28;;;;;;;4.52;100.00;102862.22;6158290;23;20022;-82
2021/04/17 06:21:26;;;;;;;10.23;4.68;;;;;;;4.63;100.00;102857.97;6157191;23;20087;-82
2021/04/17 06:23:51;;;;;;;9.95;4.35;;;;;;;4.66;100.00;102855.38;6157356;23;20442;-81
2021/04/17 06:26:17;;;;;;;10.57;5.43;;;;;;;4.76;100.00;102847.63;6131502;23;20005;-80
2021/04/17 06:28:42;;;;;;;10.52;5.43;;;;;;;4.85;100.00;102851.22;6130143;23;20725;-80
2021/04/17 06:31:08;;;;;;;10.93;5.10;;;;;;;4.97;100.00;102853.13;6128843;23;20128;-80
2021/04/17 06:33:33;;;;;;;12.18;6.45;;;;;;;4.93;100.00;102853.97;6129247;23;20017;-80
2021/04/17 06:35:59;;;;;;;18.70;5.88;;;;;;;5.00;100.00;102852.28;6155738;23;20001;-81
2021/04/17 06:38:24;;;;;;;12.93;4.72;;;;;;;5.09;100.00;102849.75;6156827;23;20005;-80
2021/04/17 06:40:51;;;;;;;17.00;6.40;;;;;;;5.03;100.00;102845.31;6135428;23;20012;-81
2021/04/17 06:43:20;;;;;;;18.13;5.60;;;;;;;5.13;100.00;102851.56;6166236;23;20005;-82
2021/04/17 06:45:46;;;;;;;14.48;5.32;;;;;;;5.19;100.00;102849.84;6141959;23;20033;-82
2021/04/17 06:48:15;;;;;;;15.23;4.82;;;;;;;5.33;100.00;102859.59;6144260;23;20009;-81
2021/04/17 06:50:41;;;;;;;21.00;5.45;;;;;;;5.32;100.00;102850.88;6145087;23;20328;-83
2021/04/17 06:53:08;;;;;;;17.55;5.80;;;;;;;5.41;100.00;102858.78;6146896;23;20028;-80
2021/04/17 06:55:34;;;;;;;16.98;6.15;;;;;;;5.40;100.00;102845.69;6173408;23;20001;-81
2021/04/17 06:58:00;;;;;;;12.07;4.47;;;;;;;5.45;100.00;102850.09;6146844;23;20012;-81
2021/04/17 07:00:26;;;;;;;12.45;5.10;;;;;;;5.58;100.00;102858.09;6165098;23;20048;-82
2021/04/17 07:02:52;;;;;;;15.25;5.25;;;;;;;5.70;100.00;102858.16;6129673;23;20006;-82
2021/04/17 07:05:18;;;;;;;16.20;4.88;;;;;;;5.74;100.00;102857.34;6156298;23;20712;-82
2021/04/17 07:07:43;;;;;;;10.35;5.18;;;;;;;5.86;100.00;102857.41;6130714;23;20452;-83
2021/04/17 07:10:09;;;;;;;13.27;5.40;;;;;;;5.98;100.00;102851.41;6155778;23;20001;-82
2021/04/17 07:12:35;;;;;;;9.65;5.03;;;;;;;6.02;100.00;102849.66;6155329;23;20009;-82
2021/04/17 07:15:05;;;;;;;12.77;5.55;;;;;;;6.19;100.00;102851.53;6154868;23;20005;-81
2021/04/17 07:17:33;;;;;;;10.90;4.55;;;;;;;6.37;100.00;102850.75;6128292;23;20005;-82
2021/04/17 07:20:04;;;;;;;8.13;3.92;;;;;;;6.41;100.00;102856.91;6155104;23;20089;-83
2021/04/17 07:22:38;;;;;;;12.02;4.13;;;;;;;6.44;100.00;102856.94;6136095;23;20001;-83
2021/04/17 07:25:06;;;;;;;11.00;5.03;;;;;;;6.65;100.00;102851.75;6134157;23;20009;-84
2021/04/17 07:27:39;;;;;;;11.02;3.80;;;;;;;6.71;100.00;102848.28;6158904;23;20009;-84
2021/04/17 07:30:24;;;;;;;8.52;3.47;;;;;;;6.80;100.00;102857.94;6158469;23;20014;-83
2021/04/17 07:33:29;;;;;;;6.05;3.95;;;;;;;6.84;100.00;102859.72;6125712;23;20068;-81
2021/04/17 07:35:55;;;;;;;5.78;2.70;;;;;;;7.01;100.00;102855.38;6034750;23;20132;-82
2021/04/17 07:38:26;;;;;;;7.25;3.97;;;;;;;7.19;100.00;102857.19;6036264;23;20011;-82
2021/04/17 07:41:07;;;;;;;6.43;2.75;;;;;;;7.27;100.00;102860.69;6013642;23;20018;-81
2021/04/17 07:43:56;;;;;;;7.93;2.70;;;;;;;7.45;100.00;102857.19;6037293;23;20172;-83
2021/04/17 07:46:23;;;;;;;6.10;2.22;;;;;;;7.47;100.00;102852.81;6013664;23;20506;-81
2021/04/17 07:48:50;;;;;;;6.05;2.95;;;;;;;7.59;100.00;102859.84;6036390;23;20007;-81
2021/04/17 07:51:17;;;;;;;8.80;2.97;;;;;;;7.74;100.00;102857.22;6007802;23;20032;-82
2021/04/17 07:53:44;;;;;;;7.15;2.63;;;;;;;7.85;100.00;102858.06;6033586;23;20703;-82
2021/04/17 07:56:29;;;;;;;8.05;3.08;;;;;;;7.85;100.00;102854.56;6029085;23;20022;-81
2021/04/17 07:58:59;;;;;;;9.60;2.55;;;;;;;7.95;100.00;102856.31;6034442;23;20022;-81
2021/04/17 08:01:28;;;;;;;9.65;2.28;;;;;;;7.90;100.00;102853.69;6034741;23;20042;-81
2021/04/17 08:03:55;;;;;;;8.23;2.53;;;;;;;8.03;100.00;102844.88;6034476;23;20031;-82
2021/04/17 08:06:21;;;;;;;7.75;2.72;;;;;;;8.15;100.00;102840.47;6011034;23;20007;-81
2021/04/17 08:08:47;;;;;;;6.78;2.08;;;;;;;8.20;100.00;102844.84;6034001;23;20022;-81
2021/04/17 08:11:13;;;;;;;9.77;2.50;;;;;;;8.30;100.00;102840.41;6087575;23;20068;-82
2021/04/17 08:13:41;;;;;;;6.40;1.92;;;;;;;8.29;100.00;102839.53;6161639;23;20001;-81
2021/04/17 08:16:08;;;;;;;5.32;2.78;;;;;;;8.45;100.00;102844.78;6163819;23;20033;-82
2021/04/17 08:18:35;;;;;;;10.75;4.28;;;;;;;8.57;100.00;102836.81;6163407;23;20005;-82
2021/04/17 08:21:01;;;;;;;10.45;2.50;;;;;;;8.42;100.00;102845.66;6160076;23;20005;-80
2021/04/17 08:23:28;;;;;;;4.93;2.20;;;;;;;8.65;100.00;102836.81;6134687;23;20075;-82
2021/04/17 08:25:55;;;;;;;4.80;1.85;;;;;;;8.71;100.00;102832.38;6131176;23;20068;-81
2021/04/17 08:28:22;;;;;;;8.52;2.28;;;;;;;8.79;100.00;102835.84;6130441;23;20505;-81
2021/04/17 08:30:47;;;;;;;9.95;2.10;;;;;;;8.70;100.00;102828.00;6131955;23;20064;-82
2021/04/17 08:33:21;;;;;;;6.65;2.13;;;;;;;8.95;100.00;102833.13;6164745;23;20008;-81
2021/04/17 08:35:47;;;;;;;7.88;2.25;;;;;;;8.89;100.00;102836.69;6141735;23;20009;-82
2021/04/17 08:38:14;;;;;;;11.52;4.75;;;;;;;9.00;100.00;102832.22;6169753;23;20610;-82
2021/04/17 08:40:47;;;;;;;7.50;2.47;;;;;;;9.16;100.00;102825.06;6170067;23;20059;-81
2021/04/17 08:43:18;;;;;;;4.75;2.15;;;;;;;9.10;100.00;102835.66;6164666;23;20020;-82
2021/04/17 08:46:07;;;;;;;6.28;2.08;;;;;;;9.12;100.00;102823.34;6139252;23;20221;-81
2021/04/17 08:49:04;;;;;;;7.07;2.63;;;;;;;9.37;100.00;102831.94;6142320;23;20024;-82
2021/04/17 08:51:32;;;;;;;7.67;2.67;;;;;;;9.37;100.00;102825.81;6038668;23;20011;-82
2021/04/17 08:54:00;;;;;;;3.25;1.83;;;;;;;9.46;100.00;102836.28;6039617;23;20017;-81
2021/04/17 08:56:43;;;;;;;6.80;2.65;;;;;;;9.47;100.00;102836.25;6041122;23;20102;-81
2021/04/17 08:59:09;;;;;;;11.13;2.03;;;;;;;9.41;100.00;102824.91;6043612;23;20012;-82
2021/04/17 09:01:44;;;;;;;8.02;2.38;;;;;;;9.47;100.00;102836.25;6049913;23;20003;-82
2021/04/17 09:04:11;;;;;;;7.20;2.50;;;;;;;9.71;100.00;102827.25;6063830;23;20003;-82
2021/04/17 09:06:49;;;;;;;5.80;2.45;;;;;;;9.76;100.00;102819.31;6039509;23;19995;-81
2021/04/17 09:09:21;;;;;;;6.88;2.47;;;;;;;9.65;100.00;102832.59;6039025;23;20008;-82
2021/04/17 09:11:47;;;;;;;5.78;2.60;;;;;;;9.80;93.66;102831.59;6048965;23;20011;-81
2021/04/17 09:14:28;;;;;;;5.18;2.30;;;;;;;9.82;93.31;102830.66;6044189;23;20015;-82
2021/04/17 09:16:55;;;;;;;6.60;3.13;;;;;;;9.95;94.10;102826.16;6044666;23;20748;-81
2021/04/17 09:19:49;;;;;;;5.03;2.00;;;;;;;10.36;94.33;102815.16;6045071;23;20450;-82
2021/04/17 09:24:52;;;;;;;2.75;1.67;;;;;;;10.50;85.50;102822.91;6042993;23;20011;-81
2021/04/17 09:27:32;;;;;;;10.43;2.13;;;;;;;10.51;85.26;102815.84;6075979;23;20013;-80
2021/04/17 09:30:06;;;;;;;9.52;4.18;;;;;;;10.79;81.63;102814.59;6162356;23;20018;-83
2021/04/17 09:32:35;;;;;;;6.07;2.35;;;;;;;11.08;81.77;102816.81;6134108;23;20374;-82
2021/04/17 09:35:16;;;;;;;6.32;2.00;;;;;;;10.58;79.15;102810.44;6162149;23;20060;-81
2021/04/17 09:37:42;;;;;;;4.93;2.00;;;;;;;10.54;77.45;102808.78;6160832;23;20001;-80
2021/04/17 09:40:08;;;;;;;7.10;1.75;;;;;;;10.99;78.10;102816.06;6166724;23;20005;-81
2021/04/17 09:42:36;;;;;;;10.80;2.67;;;;;;;10.86;75.47;102812.75;6140957;23;20004;-80
2021/04/17 09:45:07;;;;;;;4.78;1.85;;;;;;;10.59;77.86;102799.00;6144756;23;20025;-81
2021/04/17 09:47:33;;;;;;;5.68;1.60;;;;;;;10.58;76.25;102804.28;6167200;23;20005;-81
2021/04/17 09:49:59;;;;;;;3.92;1.90;;;;;;;10.78;76.35;102796.09;6139182;23;20458;-82
2021/04/17 09:52:26;;;;;;;7.80;2.00;;;;;;;11.05;72.87;102798.34;6165978;23;20006;-80
2021/04/17 09:55:06;;;;;;;3.30;1.65;;;;;;;11.27;67.44;102792.69;6141554;23;20502;-82
2021/04/17 09:57:31;;;;;;;5.60;1.90;;;;;;;11.31;67.51;102792.63;6139587;23;20037;-81
2021/04/17 10:00:03;;;;;;;3.78;1.90;;;;;;;11.70;68.71;102779.59;6168510;23;20678;-81
2021/04/17 10:02:46;;;;;;;5.68;1.90;;;;;;;11.50;70.24;102792.34;6138441;23;20012;-80
2021/04/17 10:05:14;;;;;;;5.35;1.60;;;;;;;11.76;69.12;102783.91;6138174;23;20012;-80
2021/04/17 10:07:42;;;;;;;4.82;1.50;;;;;;;11.94;68.54;102772.97;6160631;23;20005;-80
2021/04/17 10:10:09;;;;;;;3.92;1.58;;;;;;;12.03;65.71;102766.63;6158096;23;20005;-80
2021/04/17 10:12:55;;;;;;;5.95;1.80;;;;;;;12.33;64.51;102762.47;6131722;23;20491;-80
2021/04/17 10:15:20;;;;;;;2.90;1.63;;;;;;;12.49;55.88;102763.88;6159290;23;20024;-81
2021/04/17 10:17:49;;;;;;;10.07;2.03;;;;;;;12.83;56.73;102761.34;6160524;23;20032;-80
2021/04/17 10:20:15;;;;;;;3.75;1.60;;;;;;;12.85;54.55;102751.59;6157974;23;20005;-81
2021/04/17 10:22:41;;;;;;;4.40;1.83;;;;;;;12.61;54.04;102750.38;6133670;23;20057;-82
2021/04/17 10:25:08;;;;;;;6.50;1.92;;;;;;;12.28;53.98;102756.41;6138060;23;20005;-82
2021/04/17 10:27:35;;;;;;;17.70;3.05;;;;;;;12.58;53.47;102741.59;6138385;23;20482;-82
2021/04/17 10:30:01;;;;;;;11.80;2.17;;;;;;;13.58;51.56;102737.38;6136753;23;20017;-82
2021/04/17 10:32:29;;;;;;;3.53;1.95;;;;;;;13.98;49.00;102730.06;6154657;23;20092;-82
2021/04/17 10:35:04;;;;;;;4.53;1.98;;;;;;;13.38;49.05;102728.16;6160044;23;20080;-81
2021/04/17 10:37:39;;;;;;;3.55;1.40;;;;;;;13.12;48.57;102730.59;6133211;23;20096;-81
2021/04/17 10:40:11;;;;;;;4.55;2.30;;;;;;;13.83;47.69;102732.28;6158113;23;20010;-81
2021/04/17 10:42:55;;;;;;;5.28;2.00;;;;;;;14.74;43.75;102724.22;6131077;23;20029;-81
2021/04/17 10:45:36;;;;;;;6.05;2.42;;;;;;;16.78;37.92;102714.22;6158537;23;20028;-80
2021/04/17 10:48:09;;;;;;;5.30;1.83;;;;;;;16.89;36.65;102716.44;6157760;23;20002;-79
2021/04/17 10:50:58;;;;;;;2.10;1.70;;;;;;;18.15;34.77;102710.00;6133234;23;20009;-82
2021/04/17 10:53:28;;;;;;;4.28;1.90;;;;;;;18.00;34.20;102700.88;6162482;23;20096;-82
2021/04/17 10:55:56;;;;;;;4.03;2.00;;;;;;;18.07;34.67;102704.13;6162606;23;20016;-83
2021/04/17 10:58:32;;;;;;;4.93;1.92;;;;;;;19.51;32.44;102689.84;6135393;23;20304;-82
2021/04/17 11:01:06;;;;;;;3.28;2.13;;;;;;;19.01;31.47;102703.16;6159561;23;20013;-81
2021/04/17 11:03:40;;;;;;;6.70;2.45;;;;;;;19.74;30.57;102687.78;6156307;23;20053;-81
2021/04/17 11:06:20;;;;;;;4.10;2.00;;;;;;;19.65;30.98;102675.72;6155681;23;20012;-81
2021/04/17 11:08:47;;;;;;;2.90;1.73;;;;;;;20.63;28.97;102681.91;6151180;23;20621;-80
2021/04/17 11:11:21;;;;;;;4.32;1.63;;;;;;;19.23;29.99;102678.81;6156105;23;20016;-81
2021/04/17 11:13:55;;;;;;;2.55;1.67;;;;;;;19.18;30.66;102678.19;6157114;23;20005;-80
2021/04/17 11:16:34;;;;;;;4.57;2.20;;;;;;;20.70;28.74;102677.03;6157782;23;20001;-80
2021/04/17 11:18:59;;;;;;;5.68;2.60;;;;;;;21.30;28.42;102669.00;6158177;23;20008;-82
2021/04/17 11:21:25;;;;;;;4.47;1.95;;;;;;;21.98;27.77;102677.25;6159498;23;20080;-82
2021/04/17 11:23:54;;;;;;;4.90;1.90;;;;;;;21.19;27.81;102675.00;6132324;23;20002;-81
2021/04/17 11:26:26;;;;;;;5.05;1.73;;;;;;;22.02;27.07;102667.16;6156589;23;20015;-82
2021/04/17 11:28:58;;;;;;;6.20;1.98;;;;;;;21.35;27.09;102650.75;6153756;23;20013;-81